createdAt,value
2018-06-01T00:00:50.663Z,938.93
2018-06-01T00:01:50.663Z,938.93
2018-06-01T00:02:50.664Z,938.89
2018-06-01T00:03:50.667Z,938.90
2018-06-01T00:04:50.671Z,938.89
2018-06-01T00:05:50.671Z,938.88
2018-06-01T00:06:50.671Z,938.89
2018-06-01T00:07:50.674Z,938.88
2018-06-01T00:08:50.679Z,938.90
2018-06-01T00:09:50.682Z,938.93
2018-06-01T00:10:50.680Z,938.89
2018-06-01T00:11:50.683Z,938.92
2018-06-01T00:12:50.684Z,938.92
2018-06-01T00:13:50.685Z,938.91
2018-06-01T00:14:50.687Z,938.90
2018-06-01T00:15:50.689Z,938.96
2018-06-01T00:16:50.691Z,938.96
2018-06-01T00:17:50.693Z,938.96
2018-06-01T00:18:50.694Z,938.99
2018-06-01T00:19:50.697Z,938.98
2018-06-01T00:20:50.700Z,938.97
2018-06-01T00:21:50.699Z,939.00
2018-06-01T00:22:50.702Z,938.98
2018-06-01T00:23:50.704Z,939.00
2018-06-01T00:24:50.705Z,938.99
2018-06-01T00:25:50.707Z,939.00
2018-06-01T00:26:50.709Z,939.00
2018-06-01T00:27:50.711Z,938.96
2018-06-01T00:28:50.714Z,938.91
2018-06-01T00:29:50.713Z,938.90
2018-06-01T00:30:50.718Z,938.91
2018-06-01T00:31:50.718Z,938.88
2018-06-01T00:32:50.722Z,938.85
2018-06-01T00:33:50.726Z,938.81
2018-06-01T00:34:50.724Z,938.80
2018-06-01T00:35:50.730Z,938.83
2018-06-01T00:36:50.730Z,938.84
2018-06-01T00:37:50.729Z,938.85
2018-06-01T00:38:50.731Z,938.86
2018-06-01T00:39:50.734Z,938.87
2018-06-01T00:40:50.737Z,938.90
2018-06-01T00:41:50.737Z,938.90
2018-06-01T00:42:50.738Z,938.89
2018-06-01T00:43:50.741Z,938.92
2018-06-01T00:44:50.745Z,938.94
2018-06-01T00:45:50.745Z,938.97
2018-06-01T00:46:50.747Z,938.94
2018-06-01T00:47:50.749Z,938.98
2018-06-01T00:48:50.750Z,938.96
2018-06-01T00:49:50.751Z,938.97
2018-06-01T00:50:50.753Z,938.96
2018-06-01T00:51:50.757Z,938.93
2018-06-01T00:52:50.757Z,938.93
2018-06-01T00:53:50.761Z,938.93
2018-06-01T00:54:50.760Z,938.93
2018-06-01T00:55:50.767Z,938.95
2018-06-01T00:56:50.764Z,938.94
2018-06-01T00:57:50.766Z,938.97
2018-06-01T00:58:50.768Z,938.94
2018-06-01T00:59:50.770Z,938.93
2018-06-01T01:00:50.770Z,938.97
2018-06-01T01:01:50.773Z,938.93
2018-06-01T01:02:50.775Z,939.01
2018-06-01T01:03:50.776Z,939.00
2018-06-01T01:04:50.778Z,939.01
2018-06-01T01:05:50.779Z,939.09
2018-06-01T01:06:50.782Z,939.05
2018-06-01T01:07:50.783Z,939.07
2018-06-01T01:08:50.785Z,939.09
2018-06-01T01:09:50.788Z,939.07
2018-06-01T01:10:50.787Z,939.06
2018-06-01T01:11:50.794Z,939.12
2018-06-01T01:12:50.791Z,939.10
2018-06-01T01:13:50.792Z,939.03
2018-06-01T01:14:50.793Z,939.07
2018-06-01T01:15:50.796Z,939.06
2018-06-01T01:16:50.797Z,939.05
2018-06-01T01:17:50.799Z,939.03
2018-06-01T01:18:50.804Z,939.03
2018-06-01T01:19:50.802Z,939.04
2018-06-01T01:20:50.803Z,939.05
2018-06-01T01:21:50.804Z,939.08
2018-06-01T01:22:50.806Z,939.07
2018-06-01T01:23:50.808Z,939.13
2018-06-01T01:24:50.809Z,939.13
2018-06-01T01:25:50.809Z,939.14
2018-06-01T01:26:50.814Z,939.06
2018-06-01T01:27:50.814Z,939.11
2018-06-01T01:28:50.815Z,939.06
2018-06-01T01:29:50.816Z,939.04
2018-06-01T01:30:50.818Z,939.06
2018-06-01T01:31:50.818Z,939.03
2018-06-01T01:32:50.820Z,939.04
2018-06-01T01:33:50.822Z,939.02
2018-06-01T01:34:50.822Z,939.06
2018-06-01T01:35:50.825Z,939.09
2018-06-01T01:36:50.826Z,939.07
2018-06-01T01:37:50.828Z,939.07
2018-06-01T01:38:50.832Z,939.08
2018-06-01T01:39:50.831Z,939.11
2018-06-01T01:40:50.832Z,939.10
2018-06-01T01:41:50.833Z,939.10
2018-06-01T01:42:50.835Z,939.13
2018-06-01T01:43:50.837Z,939.12
2018-06-01T01:44:50.838Z,939.11
2018-06-01T01:45:50.840Z,939.12
2018-06-01T01:46:50.842Z,939.06
2018-06-01T01:47:50.842Z,939.10
2018-06-01T01:48:50.846Z,939.09
2018-06-01T01:49:50.847Z,939.11
2018-06-01T01:50:50.849Z,939.11
2018-06-01T01:51:50.850Z,939.11
2018-06-01T01:52:50.852Z,939.12
2018-06-01T01:53:50.852Z,939.06
2018-06-01T01:54:50.855Z,939.12
2018-06-01T01:55:50.857Z,939.12
2018-06-01T01:56:50.860Z,939.11
2018-06-01T01:57:50.861Z,939.05
2018-06-01T01:58:50.863Z,939.06
2018-06-01T01:59:50.865Z,939.00
2018-06-01T02:00:50.867Z,939.07
2018-06-01T02:01:50.870Z,939.04
2018-06-01T02:02:50.869Z,939.07
2018-06-01T02:03:50.872Z,939.04
2018-06-01T02:04:50.872Z,939.03
2018-06-01T02:05:50.874Z,939.06
2018-06-01T02:06:50.876Z,939.00
2018-06-01T02:07:50.879Z,939.01
2018-06-01T02:08:50.879Z,939.07
2018-06-01T02:09:50.880Z,939.05
2018-06-01T02:10:50.884Z,938.99
2018-06-01T02:11:50.886Z,938.96
2018-06-01T02:12:50.888Z,939.03
2018-06-01T02:13:50.888Z,939.05
2018-06-01T02:14:50.891Z,939.03
2018-06-01T02:15:50.893Z,939.08
2018-06-01T02:16:50.897Z,939.02
2018-06-01T02:17:50.895Z,939.01
2018-06-01T02:18:50.898Z,939.01
2018-06-01T02:19:50.901Z,939.01
2018-06-01T02:20:50.957Z,939.00
2018-06-01T02:21:50.903Z,938.99
2018-06-01T02:22:50.905Z,938.97
2018-06-01T02:23:50.908Z,938.93
2018-06-01T02:24:50.908Z,938.95
2018-06-01T02:25:50.911Z,938.98
2018-06-01T02:26:50.913Z,938.98
2018-06-01T02:27:50.914Z,938.97
2018-06-01T02:28:50.920Z,938.94
2018-06-01T02:29:50.917Z,938.92
2018-06-01T02:30:50.920Z,938.91
2018-06-01T02:31:50.924Z,938.94
2018-06-01T02:32:50.924Z,938.95
2018-06-01T02:33:50.925Z,938.92
2018-06-01T02:34:50.926Z,938.97
2018-06-01T02:35:50.929Z,939.04
2018-06-01T02:36:50.931Z,939.02
2018-06-01T02:37:50.933Z,939.01
2018-06-01T02:38:50.937Z,939.06
2018-06-01T02:39:50.938Z,939.08
2018-06-01T02:40:50.938Z,939.10
2018-06-01T02:41:50.943Z,939.07
2018-06-01T02:42:50.941Z,939.08
2018-06-01T02:43:50.943Z,939.08
2018-06-01T02:44:50.945Z,939.10
2018-06-01T02:45:50.947Z,939.10
2018-06-01T02:46:50.948Z,939.07
2018-06-01T02:47:50.949Z,939.11
2018-06-01T02:48:50.952Z,939.13
2018-06-01T02:49:50.955Z,939.14
2018-06-01T02:50:50.955Z,939.14
2018-06-01T02:51:50.956Z,939.16
2018-06-01T02:52:50.963Z,939.15
2018-06-01T02:53:50.959Z,939.17
2018-06-01T02:54:50.962Z,939.17
2018-06-01T02:55:50.964Z,939.18
2018-06-01T02:56:50.965Z,939.12
2018-06-01T02:57:50.966Z,939.13
2018-06-01T02:58:50.970Z,939.16
2018-06-01T02:59:50.969Z,939.17
2018-06-01T03:00:50.972Z,939.20
2018-06-01T03:01:50.973Z,939.19
2018-06-01T03:02:50.973Z,939.19
2018-06-01T03:03:50.977Z,939.18
2018-06-01T03:04:50.979Z,939.22
2018-06-01T03:05:50.979Z,939.21
2018-06-01T03:06:50.981Z,939.22
2018-06-01T03:07:50.984Z,939.25
2018-06-01T03:08:50.985Z,939.30
2018-06-01T03:09:50.986Z,939.31
2018-06-01T03:10:50.989Z,939.31
2018-06-01T03:11:50.991Z,939.32
2018-06-01T03:12:50.992Z,939.35
2018-06-01T03:13:50.992Z,939.31
2018-06-01T03:14:50.996Z,939.29
2018-06-01T03:15:50.997Z,939.30
2018-06-01T03:16:50.999Z,939.32
2018-06-01T03:17:51.000Z,939.32
2018-06-01T03:18:51.003Z,939.32
2018-06-01T03:19:51.003Z,939.35
2018-06-01T03:20:51.006Z,939.35
2018-06-01T03:21:51.006Z,939.35
2018-06-01T03:22:51.007Z,939.31
2018-06-01T03:23:51.013Z,939.29
2018-06-01T03:24:51.012Z,939.31
2018-06-01T03:25:51.012Z,939.27
2018-06-01T03:26:51.014Z,939.27
2018-06-01T03:27:51.017Z,939.26
2018-06-01T03:28:51.018Z,939.27
2018-06-01T03:29:51.021Z,939.25
2018-06-01T03:30:51.021Z,939.30
2018-06-01T03:31:51.023Z,939.31
2018-06-01T03:32:51.024Z,939.29
2018-06-01T03:33:51.024Z,939.33
2018-06-01T03:34:51.028Z,939.29
2018-06-01T03:35:51.029Z,939.34
2018-06-01T03:36:51.029Z,939.34
2018-06-01T03:37:51.032Z,939.33
2018-06-01T03:38:51.033Z,939.34
2018-06-01T03:39:51.034Z,939.34
2018-06-01T03:40:51.037Z,939.31
2018-06-01T03:41:51.036Z,939.32
2018-06-01T03:42:51.039Z,939.33
2018-06-01T03:43:51.042Z,939.33
2018-06-01T03:44:51.042Z,939.33
2018-06-01T03:45:51.044Z,939.33
2018-06-01T03:46:51.046Z,939.30
2018-06-01T03:47:51.048Z,939.33
2018-06-01T03:48:51.049Z,939.39
2018-06-01T03:49:51.049Z,939.42
2018-06-01T03:50:51.051Z,939.42
2018-06-01T03:51:51.054Z,939.41
2018-06-01T03:52:51.055Z,939.43
2018-06-01T03:53:51.062Z,939.47
2018-06-01T03:54:51.058Z,939.45
2018-06-01T03:55:51.059Z,939.44
2018-06-01T03:56:51.061Z,939.44
2018-06-01T03:57:51.062Z,939.41
2018-06-01T03:58:51.064Z,939.47
2018-06-01T03:59:51.066Z,939.47
2018-06-01T04:00:51.068Z,939.43
2018-06-01T04:01:51.066Z,939.42
2018-06-01T04:02:51.081Z,939.42
2018-06-01T04:03:51.070Z,939.41
2018-06-01T04:04:51.073Z,939.45
2018-06-01T04:05:51.074Z,939.47
2018-06-01T04:06:51.075Z,939.46
2018-06-01T04:07:51.077Z,939.47
2018-06-01T04:08:51.079Z,939.49
2018-06-01T04:09:51.079Z,939.51
2018-06-01T04:10:51.082Z,939.50
2018-06-01T04:11:51.083Z,939.50
2018-06-01T04:12:51.083Z,939.50
2018-06-01T04:13:51.086Z,939.52
2018-06-01T04:14:51.085Z,939.52
2018-06-01T04:15:51.088Z,939.51
2018-06-01T04:16:51.089Z,939.52
2018-06-01T04:17:51.089Z,939.54
2018-06-01T04:18:51.093Z,939.59
2018-06-01T04:19:51.092Z,939.58
2018-06-01T04:20:51.095Z,939.60
2018-06-01T04:21:51.102Z,939.57
2018-06-01T04:22:51.098Z,939.58
2018-06-01T04:23:51.099Z,939.57
2018-06-01T04:24:51.101Z,939.60
2018-06-01T04:25:51.101Z,939.62
2018-06-01T04:26:51.103Z,939.59
2018-06-01T04:27:51.108Z,939.63
2018-06-01T04:28:51.107Z,939.62
2018-06-01T04:29:51.109Z,939.63
2018-06-01T04:30:51.110Z,939.61
2018-06-01T04:31:51.112Z,939.66
2018-06-01T04:32:51.114Z,939.63
2018-06-01T04:33:51.114Z,939.65
2018-06-01T04:34:51.116Z,939.68
2018-06-01T04:35:51.119Z,939.67
2018-06-01T04:36:51.119Z,939.71
2018-06-01T04:37:51.121Z,939.71
2018-06-01T04:38:51.124Z,939.72
2018-06-01T04:39:51.125Z,939.69
2018-06-01T04:40:51.127Z,939.78
2018-06-01T04:41:51.127Z,939.77
2018-06-01T04:42:51.130Z,939.74
2018-06-01T04:43:51.132Z,939.77
2018-06-01T04:44:51.135Z,939.78
2018-06-01T04:45:51.133Z,939.79
2018-06-01T04:46:51.138Z,939.80
2018-06-01T04:47:51.139Z,939.82
2018-06-01T04:48:51.142Z,939.85
2018-06-01T04:49:51.141Z,939.87
2018-06-01T04:50:51.145Z,939.86
2018-06-01T04:51:51.146Z,939.84
2018-06-01T04:52:51.149Z,939.87
2018-06-01T04:53:51.149Z,939.87
2018-06-01T04:54:51.155Z,939.89
2018-06-01T04:55:51.157Z,939.87
2018-06-01T04:56:51.157Z,939.87
2018-06-01T04:57:51.157Z,939.88
2018-06-01T04:58:51.160Z,939.83
2018-06-01T04:59:51.163Z,939.90
2018-06-01T05:00:51.164Z,939.89
2018-06-01T05:01:51.165Z,939.86
2018-06-01T05:02:51.167Z,939.88
2018-06-01T05:03:51.169Z,939.87
2018-06-01T05:04:51.172Z,939.85
2018-06-01T05:05:51.174Z,939.89
2018-06-01T05:06:51.176Z,939.89
2018-06-01T05:07:51.177Z,939.90
2018-06-01T05:08:51.178Z,939.91
2018-06-01T05:09:51.180Z,939.91
2018-06-01T05:10:51.181Z,939.93
2018-06-01T05:11:51.184Z,939.97
2018-06-01T05:12:51.185Z,939.96
2018-06-01T05:13:51.187Z,939.99
2018-06-01T05:14:51.189Z,939.96
2018-06-01T05:15:51.194Z,940.00
2018-06-01T05:16:51.193Z,939.99
2018-06-01T05:17:51.193Z,939.96
2018-06-01T05:18:51.197Z,940.01
2018-06-01T05:19:51.199Z,940.05
2018-06-01T05:20:51.201Z,940.08
2018-06-01T05:21:51.204Z,940.04
2018-06-01T05:22:51.204Z,940.09
2018-06-01T05:23:51.207Z,940.10
2018-06-01T05:24:51.209Z,940.11
2018-06-01T05:25:51.212Z,940.13
2018-06-01T05:26:51.213Z,940.10
2018-06-01T05:27:51.215Z,940.10
2018-06-01T05:28:51.218Z,940.12
2018-06-01T05:29:51.218Z,940.13
2018-06-01T05:30:51.222Z,940.09
2018-06-01T05:31:51.223Z,940.12
2018-06-01T05:32:51.226Z,940.09
2018-06-01T05:33:51.226Z,940.10
2018-06-01T05:34:51.229Z,940.13
2018-06-01T05:35:51.231Z,940.08
2018-06-01T05:36:51.237Z,940.08
2018-06-01T05:37:51.235Z,940.13
2018-06-01T05:38:51.236Z,940.15
2018-06-01T05:39:51.239Z,940.13
2018-06-01T05:40:51.240Z,940.13
2018-06-01T05:41:51.243Z,940.15
2018-06-01T05:42:51.244Z,940.17
2018-06-01T05:43:51.252Z,940.14
2018-06-01T05:44:51.247Z,940.16
2018-06-01T05:45:51.250Z,940.21
2018-06-01T05:46:51.251Z,940.22
2018-06-01T05:47:51.324Z,940.22
2018-06-01T05:48:51.260Z,940.18
2018-06-01T05:49:51.257Z,940.18
2018-06-01T05:50:51.259Z,940.16
2018-06-01T05:51:51.264Z,940.14
2018-06-01T05:52:51.264Z,940.15
2018-06-01T05:53:51.266Z,940.20
2018-06-01T05:54:51.268Z,940.23
2018-06-01T05:55:51.271Z,940.22
2018-06-01T05:56:51.273Z,940.22
2018-06-01T05:57:51.276Z,940.24
2018-06-01T05:58:51.277Z,940.25
2018-06-01T05:59:51.281Z,940.27
2018-06-01T06:00:51.284Z,940.26
2018-06-01T06:01:51.285Z,940.31
2018-06-01T06:02:51.291Z,940.32
2018-06-01T06:03:51.292Z,940.31
2018-06-01T06:04:51.314Z,940.30
2018-06-01T06:05:51.439Z,940.31
2018-06-01T06:06:51.363Z,940.33
2018-06-01T06:07:53.395Z,940.34
2018-06-01T06:08:51.359Z,940.36
2018-06-01T06:09:51.350Z,940.39
2018-06-01T06:10:51.310Z,940.39
2018-06-01T06:11:51.336Z,940.40
2018-06-01T06:12:51.318Z,940.39
2018-06-01T06:13:51.318Z,940.39
2018-06-01T06:14:51.397Z,940.40
2018-06-01T06:15:51.368Z,940.42
2018-06-01T06:16:51.328Z,940.43
2018-06-01T06:17:51.374Z,940.44
2018-06-01T06:18:51.338Z,940.42
2018-06-01T06:19:51.384Z,940.40
2018-06-01T06:20:51.339Z,940.43
2018-06-01T06:21:51.341Z,940.42
2018-06-01T06:22:51.344Z,940.37
2018-06-01T06:23:51.349Z,940.41
2018-06-01T06:24:51.351Z,940.40
2018-06-01T06:25:51.354Z,940.41
2018-06-01T06:26:51.362Z,940.40
2018-06-01T06:27:51.361Z,940.42
2018-06-01T06:28:51.363Z,940.42
2018-06-01T06:29:51.366Z,940.40
2018-06-01T06:30:51.370Z,940.41
2018-06-01T06:31:51.613Z,940.42
2018-06-01T06:32:51.378Z,940.41
2018-06-01T06:33:51.380Z,940.40
2018-06-01T06:34:51.385Z,940.39
2018-06-01T06:35:51.474Z,940.33
2018-06-01T06:36:51.392Z,940.38
2018-06-01T06:37:51.395Z,940.34
2018-06-01T06:38:51.399Z,940.38
2018-06-01T06:39:51.404Z,940.36
2018-06-01T06:40:51.407Z,940.38
2018-06-01T06:41:51.411Z,940.37
2018-06-01T06:42:51.413Z,940.37
2018-06-01T06:43:51.417Z,940.34
2018-06-01T06:44:51.423Z,940.39
2018-06-01T06:45:51.434Z,940.39
2018-06-01T06:46:51.431Z,940.38
2018-06-01T06:47:51.435Z,940.42
2018-06-01T06:48:51.446Z,940.40
2018-06-01T06:49:51.443Z,940.39
2018-06-01T06:50:51.449Z,940.44
2018-06-01T06:51:51.451Z,940.43
2018-06-01T06:52:51.456Z,940.47
2018-06-01T06:53:51.457Z,940.44
2018-06-01T06:54:51.463Z,940.45
2018-06-01T06:55:51.468Z,940.45
2018-06-01T06:56:51.472Z,940.47
2018-06-01T06:57:51.476Z,940.44
2018-06-01T06:58:51.480Z,940.47
2018-06-01T06:59:51.485Z,940.47
2018-06-01T07:00:51.492Z,940.55
2018-06-01T07:01:51.492Z,940.48
2018-06-01T07:02:51.497Z,940.50
2018-06-01T07:03:51.502Z,940.51
2018-06-01T07:04:51.507Z,940.54
2018-06-01T07:05:51.511Z,940.53
2018-06-01T07:06:51.516Z,940.51
2018-06-01T07:07:51.521Z,940.50
2018-06-01T07:08:51.525Z,940.52
2018-06-01T07:09:51.528Z,940.50
2018-06-01T07:10:51.535Z,940.57
2018-06-01T07:11:51.539Z,940.54
2018-06-01T07:12:51.638Z,940.56
2018-06-01T07:13:51.547Z,940.62
2018-06-01T07:14:51.554Z,940.62
2018-06-01T07:15:51.558Z,940.59
2018-06-01T07:16:51.562Z,940.59
2018-06-01T07:17:51.566Z,940.60
2018-06-01T07:18:51.571Z,940.60
2018-06-01T07:19:51.575Z,940.63
2018-06-01T07:20:51.581Z,940.63
2018-06-01T07:21:51.586Z,940.63
2018-06-01T07:22:51.594Z,940.70
2018-06-01T07:23:51.596Z,940.65
2018-06-01T07:24:51.602Z,940.67
2018-06-01T07:25:51.605Z,940.82
2018-06-01T07:26:51.610Z,940.72
2018-06-01T07:27:51.670Z,940.83
2018-06-01T07:28:51.621Z,940.73
2018-06-01T07:29:51.627Z,940.79
2018-06-01T07:30:51.631Z,940.97
2018-06-01T07:31:51.638Z,940.93
2018-06-01T07:32:51.647Z,940.85
2018-06-01T07:33:51.651Z,940.86
2018-06-01T07:34:51.655Z,940.82
2018-06-01T07:35:51.679Z,940.86
2018-06-01T07:36:51.668Z,940.90
2018-06-01T07:37:51.675Z,940.93
2018-06-01T07:38:51.737Z,940.90
2018-06-01T07:39:51.687Z,940.88
2018-06-01T07:40:51.694Z,940.89
2018-06-01T07:41:51.702Z,940.89
2018-06-01T07:42:51.706Z,940.92
2018-06-01T07:43:51.713Z,940.91
2018-06-01T07:44:51.722Z,940.88
2018-06-01T07:45:51.726Z,940.89
2018-06-01T07:46:51.802Z,940.96
2018-06-01T07:47:51.737Z,940.92
2018-06-01T07:48:51.743Z,940.91
2018-06-01T07:49:51.750Z,940.92
2018-06-01T07:50:51.760Z,940.98
2018-06-01T07:51:51.763Z,940.97
2018-06-01T07:52:51.771Z,940.91
2018-06-01T07:53:51.777Z,940.94
2018-06-01T07:54:51.783Z,940.92
2018-06-01T07:55:51.790Z,940.92
2018-06-01T07:56:51.798Z,940.89
2018-06-01T07:57:51.804Z,940.89
2018-06-01T07:58:51.810Z,941.17
2018-06-01T07:59:51.818Z,940.95
2018-06-01T08:00:51.827Z,940.99
2018-06-01T08:01:51.833Z,940.91
2018-06-01T08:02:51.840Z,940.92
2018-06-01T08:03:51.850Z,940.91
2018-06-01T08:04:51.855Z,940.90
2018-06-01T08:05:51.865Z,940.92
2018-06-01T08:06:51.869Z,940.96
2018-06-01T08:07:51.875Z,940.97
2018-06-01T08:08:51.882Z,940.97
2018-06-01T08:09:51.889Z,940.97
2018-06-01T08:10:51.896Z,941.01
2018-06-01T08:11:51.901Z,941.02
2018-06-01T08:12:51.909Z,941.17
2018-06-01T08:13:51.916Z,941.10
2018-06-01T08:14:51.922Z,941.04
2018-06-01T08:15:51.931Z,941.06
2018-06-01T08:16:51.937Z,941.06
2018-06-01T08:17:51.942Z,941.07
2018-06-01T08:18:51.948Z,941.05
2018-06-01T08:19:52.022Z,941.27
2018-06-01T08:20:51.962Z,941.08
2018-06-01T08:21:51.973Z,941.06
2018-06-01T08:22:51.975Z,941.07
2018-06-01T08:23:51.983Z,941.06
2018-06-01T08:24:51.988Z,941.05
2018-06-01T08:25:51.995Z,941.00
2018-06-01T08:26:52.017Z,940.98
2018-06-01T08:27:52.008Z,941.00
2018-06-01T08:28:52.013Z,940.98
2018-06-01T08:29:52.020Z,941.03
2018-06-01T08:30:52.027Z,941.01
2018-06-01T08:31:52.033Z,941.04
2018-06-01T08:32:52.039Z,941.03
2018-06-01T08:33:52.044Z,941.02
2018-06-01T08:34:52.051Z,941.06
2018-06-01T08:35:52.058Z,941.04
2018-06-01T08:36:52.063Z,941.21
2018-06-01T08:37:52.073Z,941.11
2018-06-01T08:38:52.075Z,941.09
2018-06-01T08:39:52.081Z,941.10
2018-06-01T08:40:52.090Z,941.17
2018-06-01T08:41:52.094Z,941.14
2018-06-01T08:42:52.102Z,941.14
2018-06-01T08:43:52.108Z,941.16
2018-06-01T08:44:52.116Z,941.17
2018-06-01T08:45:52.129Z,941.17
2018-06-01T08:46:52.127Z,941.16
2018-06-01T08:47:52.140Z,941.18
2018-06-01T08:48:52.142Z,941.13
2018-06-01T08:49:52.149Z,941.12
2018-06-01T08:50:52.155Z,941.10
2018-06-01T08:51:52.161Z,941.12
2018-06-01T08:52:52.169Z,941.10
2018-06-01T08:53:52.175Z,941.07
2018-06-01T08:54:52.187Z,941.06
2018-06-01T08:55:52.189Z,941.05
2018-06-01T08:56:52.195Z,941.08
2018-06-01T08:57:52.201Z,941.05
2018-06-01T08:58:52.211Z,941.05
2018-06-01T08:59:52.216Z,941.06
2018-06-01T09:00:52.223Z,941.06
2018-06-01T09:01:52.227Z,941.05
2018-06-01T09:02:52.235Z,941.02
2018-06-01T09:03:52.240Z,941.07
2018-06-01T09:04:52.247Z,941.07
2018-06-01T09:05:52.254Z,941.10
2018-06-01T09:06:52.260Z,941.09
2018-06-01T09:07:52.269Z,941.11
2018-06-01T09:08:52.601Z,941.14
2018-06-01T09:09:52.417Z,941.12
2018-06-01T09:10:52.286Z,941.15
2018-06-01T09:11:52.296Z,941.13
2018-06-01T09:12:52.297Z,941.13
2018-06-01T09:13:52.305Z,941.16
2018-06-01T09:14:52.309Z,941.16
2018-06-01T09:15:52.316Z,941.18
2018-06-01T09:16:52.327Z,941.19
2018-06-01T09:17:52.329Z,941.22
2018-06-01T09:18:52.467Z,941.24
2018-06-01T09:19:52.342Z,941.26
2018-06-01T09:20:52.349Z,941.21
2018-06-01T09:21:52.355Z,941.24
2018-06-01T09:22:52.361Z,941.26
2018-06-01T09:23:52.368Z,941.27
2018-06-01T09:24:52.451Z,941.27
2018-06-01T09:25:52.381Z,941.28
2018-06-01T09:26:52.389Z,941.23
2018-06-01T09:27:52.395Z,941.22
2018-06-01T09:28:52.405Z,941.21
2018-06-01T09:29:52.407Z,941.22
2018-06-01T09:30:52.415Z,941.23
2018-06-01T09:31:52.421Z,941.21
2018-06-01T09:32:52.431Z,941.23
2018-06-01T09:33:52.434Z,941.20
2018-06-01T09:34:52.442Z,941.18
2018-06-01T09:35:52.447Z,941.22
2018-06-01T09:36:52.455Z,941.25
2018-06-01T09:37:52.463Z,941.22
2018-06-01T09:38:52.468Z,941.21
2018-06-01T09:39:52.474Z,941.23
2018-06-01T09:40:52.485Z,941.30
2018-06-01T09:41:52.489Z,941.29
2018-06-01T09:42:52.494Z,941.24
2018-06-01T09:43:52.503Z,941.23
2018-06-01T09:44:52.511Z,941.32
2018-06-01T09:45:52.530Z,941.27
2018-06-01T09:46:52.531Z,941.26
2018-06-01T09:47:52.537Z,941.29
2018-06-01T09:48:52.546Z,941.23
2018-06-01T09:49:52.553Z,941.28
2018-06-01T09:50:52.563Z,941.27
2018-06-01T09:51:52.572Z,941.29
2018-06-01T09:52:52.579Z,941.34
2018-06-01T09:53:52.588Z,941.29
2018-06-01T09:54:52.653Z,941.29
2018-06-01T09:55:52.619Z,941.27
2018-06-01T09:56:52.630Z,941.27
2018-06-01T09:57:52.719Z,941.29
2018-06-01T09:58:52.651Z,941.27
2018-06-01T09:59:52.641Z,941.30
2018-06-01T10:00:52.650Z,941.31
2018-06-01T10:01:52.671Z,941.28
2018-06-01T10:02:52.670Z,941.26
2018-06-01T10:03:52.792Z,941.24
2018-06-01T10:04:52.760Z,941.30
2018-06-01T10:05:52.698Z,941.24
2018-06-01T10:06:52.958Z,941.23
2018-06-01T10:07:52.719Z,941.21
2018-06-01T10:08:52.744Z,941.23
2018-06-01T10:09:52.755Z,941.18
2018-06-01T10:10:52.762Z,941.24
2018-06-01T10:11:52.904Z,941.22
2018-06-01T10:12:52.757Z,941.21
2018-06-01T10:13:52.767Z,941.20
2018-06-01T10:14:52.776Z,941.21
2018-06-01T10:15:52.787Z,941.16
2018-06-01T10:16:52.795Z,941.17
2018-06-01T10:17:52.803Z,941.15
2018-06-01T10:18:52.812Z,941.18
2018-06-01T10:19:52.829Z,941.20
2018-06-01T10:20:52.831Z,941.18
2018-06-01T10:21:52.841Z,941.20
2018-06-01T10:22:52.851Z,941.19
2018-06-01T10:23:52.862Z,941.24
2018-06-01T10:24:52.873Z,941.23
2018-06-01T10:25:52.882Z,941.27
2018-06-01T10:26:53.232Z,941.23
2018-06-01T10:27:52.905Z,941.24
2018-06-01T10:28:52.917Z,941.24
2018-06-01T10:29:52.926Z,941.25
2018-06-01T10:30:52.939Z,941.30
2018-06-01T10:31:52.956Z,941.29
2018-06-01T10:32:52.987Z,941.28
2018-06-01T10:33:52.973Z,941.25
2018-06-01T10:34:52.984Z,941.22
2018-06-01T10:35:52.998Z,941.16
2018-06-01T10:36:53.009Z,941.22
2018-06-01T10:37:53.020Z,941.19
2018-06-01T10:38:53.033Z,941.17
2018-06-01T10:39:53.051Z,941.19
2018-06-01T10:40:53.301Z,941.23
2018-06-01T10:41:53.069Z,941.17
2018-06-01T10:42:53.353Z,941.22
2018-06-01T10:43:53.095Z,941.23
2018-06-01T10:44:53.276Z,941.21
2018-06-01T10:45:53.122Z,941.17
2018-06-01T10:46:53.133Z,941.20
2018-06-01T10:47:53.146Z,941.17
2018-06-01T10:48:53.314Z,941.12
2018-06-01T10:49:53.169Z,941.08
2018-06-01T10:50:53.189Z,941.08
2018-06-01T10:51:53.196Z,941.12
2018-06-01T10:52:53.223Z,941.10
2018-06-01T10:53:53.218Z,941.08
2018-06-01T10:54:53.230Z,941.05
2018-06-01T10:55:53.242Z,941.08
2018-06-01T10:56:53.254Z,941.06
2018-06-01T10:57:53.264Z,941.10
2018-06-01T10:58:53.276Z,941.02
2018-06-01T10:59:53.288Z,940.99
2018-06-01T11:00:53.300Z,940.99
2018-06-01T11:01:53.352Z,941.02
2018-06-01T11:02:53.320Z,941.00
2018-06-01T11:03:53.331Z,941.01
2018-06-01T11:04:53.343Z,940.95
2018-06-01T11:05:53.712Z,940.95
2018-06-01T11:06:53.604Z,940.94
2018-06-01T11:07:53.389Z,940.93
2018-06-01T11:08:53.562Z,940.97
2018-06-01T11:09:53.537Z,940.97
2018-06-01T11:10:53.403Z,940.95
2018-06-01T11:11:53.414Z,940.92
2018-06-01T11:12:53.425Z,940.93
2018-06-01T11:13:53.434Z,940.88
2018-06-01T11:14:53.446Z,940.89
2018-06-01T11:15:53.460Z,940.91
2018-06-01T11:16:53.468Z,940.91
2018-06-01T11:17:53.477Z,940.94
2018-06-01T11:18:53.488Z,940.92
2018-06-01T11:19:53.548Z,940.91
2018-06-01T11:20:53.511Z,940.87
2018-06-01T11:21:53.602Z,940.92
2018-06-01T11:22:53.747Z,940.95
2018-06-01T11:23:53.544Z,940.95
2018-06-01T11:24:53.558Z,940.96
2018-06-01T11:25:53.569Z,940.90
2018-06-01T11:26:53.583Z,940.92
2018-06-01T11:27:56.826Z,940.94
2018-06-01T11:28:53.605Z,940.93
2018-06-01T11:29:53.616Z,940.94
2018-06-01T11:30:53.627Z,940.96
2018-06-01T11:31:53.639Z,940.90
2018-06-01T11:32:53.652Z,940.90
2018-06-01T11:33:53.664Z,940.90
2018-06-01T11:34:53.676Z,940.87
2018-06-01T11:35:53.707Z,940.88
2018-06-01T11:36:53.701Z,940.88
2018-06-01T11:37:53.712Z,940.88
2018-06-01T11:38:53.724Z,940.82
2018-06-01T11:39:53.738Z,940.80
2018-06-01T11:40:53.748Z,940.78
2018-06-01T11:41:53.760Z,940.72
2018-06-01T11:42:53.771Z,940.80
2018-06-01T11:43:53.785Z,940.80
2018-06-01T11:44:53.795Z,940.80
2018-06-01T11:45:53.809Z,940.76
2018-06-01T11:46:53.826Z,940.74
2018-06-01T11:47:53.827Z,940.73
2018-06-01T11:48:53.844Z,940.74
2018-06-01T11:49:53.849Z,940.73
2018-06-01T11:50:53.863Z,940.73
2018-06-01T11:51:53.872Z,940.73
2018-06-01T11:52:53.917Z,940.71
2018-06-01T11:53:53.893Z,940.72
2018-06-01T11:54:53.906Z,940.75
2018-06-01T11:55:54.034Z,940.75
2018-06-01T11:56:53.928Z,940.69
2018-06-01T11:57:53.988Z,940.68
2018-06-01T11:58:53.950Z,940.71
2018-06-01T11:59:53.962Z,940.68
2018-06-01T12:00:54.015Z,940.69
2018-06-01T12:01:53.984Z,940.67
2018-06-01T12:02:53.994Z,940.63
2018-06-01T12:03:54.004Z,940.70
2018-06-01T12:04:54.016Z,940.67
2018-06-01T12:05:54.029Z,940.59
2018-06-01T12:06:54.035Z,940.60
2018-06-01T12:07:54.049Z,940.59
2018-06-01T12:08:54.303Z,940.61
2018-06-01T12:09:54.063Z,940.60
2018-06-01T12:10:54.128Z,940.56
2018-06-01T12:11:54.081Z,940.55
2018-06-01T12:12:54.094Z,940.56
2018-06-01T12:13:54.099Z,940.55
2018-06-01T12:14:54.418Z,940.55
2018-06-01T12:15:54.115Z,940.55
2018-06-01T12:16:54.123Z,940.55
2018-06-01T12:17:54.138Z,940.58
2018-06-01T12:18:54.140Z,940.58
2018-06-01T12:19:54.264Z,940.55
2018-06-01T12:20:57.348Z,940.51
2018-06-01T12:21:54.236Z,940.50
2018-06-01T12:22:54.173Z,940.53
2018-06-01T12:23:54.181Z,940.52
2018-06-01T12:24:54.189Z,940.52
2018-06-01T12:25:54.197Z,940.48
2018-06-01T12:26:54.205Z,940.48
2018-06-01T12:27:54.213Z,940.49
2018-06-01T12:28:54.221Z,940.48